This is the latest recevied weather packets stored in our database for station/object AD8BV. If no packets are shown the sender has not sent any weather packets the latest 1 day(s).
| Time | Temp. | Humidity | Pressure | Rain* | Wind** | Luminosity | Snow |
|---|---|---|---|---|---|---|---|
| 1836274755 | 16.67° C | 93% | 1022.2 hPa | 0 mm | 0 m/s | 0 W/m² | - |
| 1836274453 | 16.67° C | 93% | 1022.4 hPa | 0 mm | 0 m/s | 0 W/m² | - |
| 1836274306 | 16.67° C | 93% | 1022.4 hPa | 0 mm | 0 m/s | 0 W/m² | - |
| 1836274151 | 16.67° C | 93% | 1022.4 hPa | 0 mm | 0 m/s | 0 W/m² | - |
| 1778040465 | 8.33° C | 66% | 1011 hPa | 0 mm | 0 m/s | 0 W/m² | - |
| 1778040162 | 8.33° C | 66% | 1011 hPa | 0 mm | 0 m/s | 0 W/m² | - |
| 1778039859 | 8.33° C | 64% | 1010.7 hPa | 0 mm | 0 m/s | 0 W/m² | - |
| 1778039556 | 8.33° C | 65% | 1010.8 hPa | 0 mm | 0.89 m/s, 245° | 0 W/m² | - |
| 1778039253 | 8.33° C | 64% | 1010.7 hPa | 0 mm | 0 m/s | 0 W/m² | - |
| 1778038950 | 8.33° C | 66% | 1010.7 hPa | 0 mm | 0 m/s | 0 W/m² | - |
| 1778038647 | 8.33° C | 68% | 1010.8 hPa | 0 mm | 0 m/s | 0 W/m² | - |
| 1778038344 | 8.33° C | 66% | 1010.8 hPa | 0 mm | 0 m/s | 0 W/m² | - |
| 1778038041 | 8.33° C | 68% | 1010.5 hPa | 0 mm | 0 m/s | 0 W/m² | - |
| 1778037738 | 8.33° C | 68% | 1010.7 hPa | 0 mm | 0 m/s | 0 W/m² | - |
| 1778037435 | 8.33° C | 67% | 1010.7 hPa | 0 mm | 0 m/s | 0 W/m² | - |
| 1778037132 | 8.33° C | 66% | 1010.7 hPa | 0 mm | 0 m/s | 0 W/m² | - |
| 1778036830 | 8.33° C | 64% | 1010.7 hPa | 0 mm | 0 m/s | 0 W/m² | - |
| 1778036527 | 8.33° C | 64% | 1010.6 hPa | 0 mm | 0 m/s | 0 W/m² | - |
| 1778036224 | 8.33° C | 65% | 1010.9 hPa | 0 mm | 0.45 m/s, 285° | 0 W/m² | - |
| 1778035920 | 8.33° C | 66% | 1010.5 hPa | 0 mm | 0 m/s | 0 W/m² | - |
| 1778035617 | 8.33° C | 67% | 1010.6 hPa | 0 mm | 0 m/s | 0 W/m² | - |
| 1778035314 | 8.33° C | 65% | 1010.8 hPa | 0 mm | 0 m/s | 0 W/m² | - |
| 1778035010 | 8.33° C | 66% | 1010.7 hPa | 0 mm | 0 m/s | 0 W/m² | - |
| 1778034708 | 8.33° C | 65% | 1010.6 hPa | 0 mm | 0 m/s | 0 W/m² | - |
| 1778034405 | 8.33° C | 65% | 1010.5 hPa | 0 mm | 0 m/s | 0 W/m² | - |
* Rain latest hour (hover to see other rain measurements)
** Current wind speed in m/s (hover to see current wind gust speed)